createdAt,value
2022-09-01T00:00:01.306Z,1.58
2022-09-01T00:02:50.802Z,2.33
2022-09-01T00:05:19.125Z,2.10
2022-09-01T00:07:46.196Z,2.33
2022-09-01T00:10:13.064Z,2.10
2022-09-01T00:12:40.264Z,1.80
2022-09-01T00:15:09.618Z,2.58
2022-09-01T00:17:36.403Z,2.63
2022-09-01T00:20:06.722Z,2.05
2022-09-01T00:22:33.919Z,2.25
2022-09-01T00:25:02.075Z,2.30
2022-09-01T05:18:36.535Z,2.60
2022-09-01T05:21:09.947Z,2.78
2022-09-01T05:23:40.719Z,2.55
2022-09-01T05:26:17.170Z,2.60
2022-09-01T05:28:49.808Z,2.50
2022-09-01T05:31:19.784Z,2.87
2022-09-01T05:33:49.956Z,2.30
2022-09-01T05:36:20.185Z,2.10
2022-09-01T05:38:48.772Z,2.80
2022-09-01T05:41:17.577Z,2.65
2022-09-01T05:43:48.259Z,2.53
2022-09-01T05:46:21.014Z,2.47
2022-09-01T05:48:51.935Z,2.33
2022-09-01T05:51:43.410Z,2.70
2022-09-01T05:54:09.836Z,2.40
2022-09-01T05:56:43.592Z,2.75
2022-09-01T05:59:28.587Z,3.70
2022-09-01T06:01:56.301Z,3.22
2022-09-01T06:04:25.637Z,3.60
2022-09-01T06:07:06.919Z,3.00
2022-09-01T06:09:39.761Z,2.75
2022-09-01T06:12:07.093Z,2.80
2022-09-01T06:14:35.028Z,2.63
2022-09-01T06:17:03.254Z,2.58
2022-09-01T06:19:36.712Z,2.95
2022-09-01T06:22:04.927Z,2.35
2022-09-01T06:24:31.718Z,3.63
2022-09-01T06:26:59.796Z,2.50
2022-09-01T06:29:26.816Z,2.30
2022-09-01T06:31:53.589Z,1.92
2022-09-01T06:34:20.738Z,2.15
2022-09-01T06:36:49.581Z,2.10
2022-09-01T06:39:19.917Z,1.98
2022-09-01T06:41:53.114Z,2.38
2022-09-01T06:44:23.084Z,2.25
2022-09-01T06:46:51.968Z,2.53
2022-09-01T06:49:21.437Z,2.63
2022-09-01T06:51:49.746Z,1.70
2022-09-01T06:54:19.065Z,2.28
2022-09-01T06:56:51.942Z,2.25
2022-09-01T06:59:21.073Z,2.75
2022-09-01T07:01:49.920Z,1.98
2022-09-01T07:04:22.154Z,2.40
2022-09-01T07:07:00.369Z,2.00
2022-09-01T07:09:47.682Z,2.00
2022-09-01T07:17:56.176Z,1.95
2022-09-01T07:20:28.832Z,1.90
2022-09-01T07:23:05.645Z,1.80
2022-09-01T07:26:01.646Z,2.20
2022-09-01T07:28:36.925Z,2.10
2022-09-01T07:33:55.789Z,3.28
2022-09-01T07:39:48.998Z,2.33
2022-09-01T07:42:30.152Z,1.83
2022-09-01T07:45:27.155Z,1.98
2022-09-01T07:47:54.978Z,2.08
2022-09-01T07:50:39.857Z,2.15
2022-09-01T07:53:09.459Z,2.05
2022-09-01T07:55:41.524Z,2.13
2022-09-01T07:58:27.600Z,1.90
2022-09-01T08:00:55.552Z,1.50
2022-09-01T08:03:24.775Z,1.80
2022-09-01T08:05:57.683Z,1.75
2022-09-01T08:08:28.722Z,2.13
2022-09-01T08:11:04.343Z,1.33
2022-09-01T08:13:37.346Z,1.67
2022-09-01T08:16:16.799Z,1.73
2022-09-01T08:18:48.493Z,1.70
2022-09-01T08:21:17.038Z,1.40
2022-09-01T08:23:44.368Z,1.65
2022-09-01T08:26:15.593Z,1.52
2022-09-01T08:28:46.193Z,1.48
2022-09-01T08:31:17.528Z,1.58
2022-09-01T08:33:47.469Z,1.30
2022-09-01T08:36:20.175Z,1.30
2022-09-01T08:38:51.318Z,1.60
2022-09-01T08:41:39.972Z,1.88
2022-09-01T08:44:28.067Z,1.80
2022-09-01T08:47:01.345Z,1.77
2022-09-01T08:52:01.174Z,1.42
2022-09-01T08:54:29.705Z,1.33
2022-09-01T08:57:07.160Z,1.27
2022-09-01T08:59:33.966Z,1.38
2022-09-01T09:02:32.864Z,1.35
2022-09-01T09:05:21.143Z,1.48
2022-09-01T09:08:10.731Z,1.40
2022-09-01T09:10:58.818Z,1.60
2022-09-01T09:13:56.876Z,1.60
2022-09-01T09:16:29.142Z,1.80
2022-09-01T09:19:01.958Z,1.65
2022-09-01T09:21:40.860Z,1.70
2022-09-01T09:24:48.331Z,1.50
2022-09-01T09:27:22.761Z,1.50
2022-09-01T09:29:52.285Z,2.05
2022-09-01T09:32:31.324Z,1.90
2022-09-01T09:35:38.067Z,2.63
2022-09-01T09:38:22.671Z,1.63
2022-09-01T09:41:17.025Z,1.77
2022-09-01T09:44:03.536Z,1.63
2022-09-01T09:46:39.239Z,1.20
2022-09-01T09:49:34.699Z,1.35
2022-09-01T09:52:09.663Z,1.15
2022-09-01T09:54:39.279Z,1.02
2022-09-01T09:57:09.098Z,1.15
2022-09-01T10:00:01.345Z,1.20
2022-09-01T10:02:32.676Z,1.30
2022-09-01T10:05:25.001Z,1.17
2022-09-01T10:07:53.136Z,0.90
2022-09-01T10:10:38.610Z,1.30
2022-09-01T10:13:10.678Z,1.10
2022-09-01T10:15:38.947Z,1.60
2022-09-01T10:18:32.830Z,1.02
2022-09-01T10:21:04.638Z,1.42
2022-09-01T10:23:34.920Z,0.90
2022-09-01T10:26:11.357Z,0.73
2022-09-01T10:28:53.491Z,0.90
2022-09-01T10:31:22.405Z,1.30
2022-09-01T10:33:50.930Z,1.40
2022-09-01T10:36:19.910Z,0.95
2022-09-01T10:38:53.827Z,0.95
2022-09-01T10:42:00.176Z,1.10
2022-09-01T10:44:35.717Z,0.85
2022-09-01T10:47:23.865Z,0.80
2022-09-01T10:49:53.367Z,1.00
2022-09-01T10:52:50.324Z,1.00
2022-09-01T10:55:39.759Z,0.70
2022-09-01T11:01:48.689Z,0.50
2022-09-01T11:04:18.111Z,0.68
2022-09-01T11:09:42.834Z,0.80
2022-09-01T11:12:37.550Z,0.70
2022-09-01T11:15:26.762Z,0.50
2022-09-01T11:17:53.598Z,0.50
2022-09-01T11:20:36.657Z,0.75
2022-09-01T11:23:05.585Z,0.65
2022-09-01T11:25:39.086Z,0.70
2022-09-01T11:28:12.129Z,0.50
2022-09-01T11:30:52.805Z,0.57
2022-09-01T11:33:22.600Z,0.60
2022-09-01T11:35:59.286Z,0.60
2022-09-01T11:38:28.935Z,0.77
2022-09-01T11:40:57.974Z,0.50
2022-09-01T11:43:27.186Z,0.57
2022-09-01T11:46:09.749Z,0.63
2022-09-01T11:48:39.252Z,0.55
2022-09-01T11:51:06.298Z,0.60
2022-09-01T11:53:33.991Z,0.60
2022-09-01T11:56:20.381Z,0.60
2022-09-01T11:58:47.528Z,0.50
2022-09-01T12:01:18.880Z,0.80
2022-09-01T12:03:48.619Z,0.60
2022-09-01T12:06:25.316Z,0.73
2022-09-01T12:08:59.035Z,0.40
2022-09-01T12:11:31.442Z,1.17
2022-09-01T12:14:06.642Z,0.70
2022-09-01T12:16:42.050Z,0.63
2022-09-01T12:19:11.891Z,0.60
2022-09-01T12:21:43.879Z,0.50
2022-09-01T12:24:17.990Z,0.55
2022-09-01T12:26:46.849Z,1.27
2022-09-01T12:29:14.586Z,0.77
2022-09-01T12:31:43.471Z,0.63
2022-09-01T12:34:44.837Z,0.77
2022-09-01T12:37:22.362Z,0.38
2022-09-01T12:39:52.198Z,0.50
2022-09-01T12:42:19.291Z,0.50
2022-09-01T12:45:03.992Z,0.55
2022-09-01T12:47:33.606Z,0.40
2022-09-01T12:50:03.367Z,0.40
2022-09-01T12:52:33.188Z,0.52
2022-09-01T12:55:00.073Z,0.47
2022-09-01T12:57:31.369Z,0.50
2022-09-01T13:00:20.736Z,0.50
2022-09-01T13:02:53.627Z,0.45
2022-09-01T13:05:38.747Z,0.70
2022-09-01T13:08:14.071Z,0.60
2022-09-01T13:10:51.704Z,0.60
2022-09-01T13:13:20.271Z,0.63
2022-09-01T13:15:53.281Z,0.40
2022-09-01T13:18:22.299Z,0.70
2022-09-01T13:20:49.721Z,0.30
2022-09-01T13:23:17.412Z,0.40
2022-09-01T13:25:44.672Z,0.52
2022-09-01T13:28:12.048Z,0.45
2022-09-01T13:30:39.632Z,0.55
2022-09-01T13:33:23.114Z,1.15
2022-09-01T13:35:51.286Z,0.60
2022-09-01T13:38:19.439Z,0.60
2022-09-01T13:40:49.184Z,0.50
2022-09-01T13:43:19.625Z,0.50
2022-09-01T13:45:47.566Z,0.98
2022-09-01T13:48:16.656Z,0.60
2022-09-01T13:53:33.574Z,0.50
2022-09-01T13:56:00.491Z,0.60
2022-09-01T13:58:27.605Z,0.50
2022-09-01T14:00:54.718Z,0.77
2022-09-01T14:03:23.725Z,0.52
2022-09-01T14:05:50.965Z,0.40
2022-09-01T14:08:21.418Z,0.47
2022-09-01T14:10:51.020Z,0.30
2022-09-01T14:13:20.747Z,0.63
2022-09-01T14:15:49.241Z,0.65
2022-09-01T14:18:17.397Z,0.70
2022-09-01T14:20:47.286Z,0.60
2022-09-01T14:23:15.689Z,0.60
2022-09-01T14:25:48.741Z,0.35
2022-09-01T14:28:20.092Z,0.50
2022-09-01T14:30:48.950Z,0.60
2022-09-01T14:33:17.505Z,0.30
2022-09-01T14:35:47.689Z,0.43
2022-09-01T14:38:15.010Z,0.60
2022-09-01T14:40:43.813Z,0.50
2022-09-01T14:43:14.114Z,0.50
2022-09-01T14:45:44.687Z,0.60
2022-09-01T14:48:12.514Z,0.40
2022-09-01T14:50:44.708Z,0.50
2022-09-01T14:53:12.532Z,1.23
2022-09-01T14:55:43.626Z,0.38
2022-09-01T14:58:10.768Z,0.50
2022-09-01T15:00:41.014Z,0.40
2022-09-01T15:03:09.721Z,0.50
2022-09-01T15:05:39.793Z,0.50
2022-09-01T15:08:08.640Z,0.47
2022-09-01T15:10:36.557Z,0.60
2022-09-01T15:13:03.648Z,1.80
2022-09-01T15:15:31.404Z,0.43
2022-09-01T15:18:00.198Z,0.40
2022-09-01T15:20:45.949Z,0.50
2022-09-01T15:23:16.767Z,0.40
2022-09-01T15:25:44.123Z,0.40
2022-09-01T15:28:11.276Z,0.50
2022-09-01T15:30:39.842Z,0.35
2022-09-01T15:33:10.876Z,0.50
2022-09-01T15:35:42.138Z,0.60
2022-09-01T15:38:10.296Z,0.60
2022-09-01T15:40:41.501Z,0.60
2022-09-01T15:43:09.168Z,0.32
2022-09-01T15:45:35.938Z,0.70
2022-09-01T15:48:03.276Z,0.40
2022-09-01T15:50:30.223Z,0.40
2022-09-01T15:52:59.798Z,0.55
2022-09-01T15:55:30.313Z,0.40
2022-09-01T15:57:58.959Z,0.30
2022-09-01T16:00:27.500Z,0.57
2022-09-01T16:02:56.552Z,0.32
2022-09-01T16:05:25.221Z,0.30
2022-09-01T16:07:53.103Z,0.40
2022-09-01T16:10:21.353Z,0.30
2022-09-01T16:12:51.840Z,0.40
2022-09-01T16:15:22.260Z,0.40
2022-09-01T16:17:52.504Z,0.52
2022-09-01T16:20:23.992Z,0.47
2022-09-01T16:22:57.780Z,0.35
2022-09-01T16:25:29.847Z,0.40
2022-09-01T16:27:58.657Z,0.50
2022-09-01T16:30:29.371Z,0.57
2022-09-01T16:33:03.635Z,0.50
2022-09-01T16:35:47.953Z,0.47
2022-09-01T16:38:35.694Z,0.60
2022-09-01T16:41:48.202Z,0.50
2022-09-01T16:44:35.234Z,0.88
2022-09-01T16:47:36.935Z,0.50
2022-09-01T16:50:16.165Z,0.77
2022-09-01T16:53:11.511Z,0.50
2022-09-01T16:55:43.852Z,0.65
2022-09-01T16:58:49.424Z,0.82
2022-09-01T17:01:25.200Z,0.57
2022-09-01T17:04:12.546Z,0.80
2022-09-01T17:06:57.743Z,0.55
2022-09-01T17:09:39.951Z,0.77
2022-09-01T17:12:11.848Z,0.60
2022-09-01T17:14:47.514Z,0.60
2022-09-01T17:17:20.301Z,0.85
2022-09-01T17:19:52.519Z,0.90
2022-09-01T17:22:21.036Z,0.70
2022-09-01T17:25:09.807Z,0.85
2022-09-01T17:27:55.645Z,0.80
2022-09-01T17:30:22.650Z,0.77
2022-09-01T17:33:17.414Z,1.10
2022-09-01T17:35:48.644Z,0.90
2022-09-01T17:38:28.523Z,0.88
2022-09-01T17:41:36.110Z,0.98
2022-09-01T17:44:35.650Z,0.95
2022-09-01T17:47:13.746Z,1.13
2022-09-01T17:50:10.615Z,1.20
2022-09-01T17:53:10.145Z,1.10
2022-09-01T17:55:40.912Z,1.20
2022-09-01T17:58:20.027Z,1.13
2022-09-01T18:00:59.208Z,1.35
2022-09-01T18:03:45.946Z,1.08
2022-09-01T18:06:39.764Z,1.52
2022-09-01T18:12:02.720Z,1.42
2022-09-01T18:14:39.067Z,1.27
2022-09-01T18:17:18.393Z,1.90
2022-09-01T18:19:52.763Z,1.60
2022-09-01T18:22:24.982Z,1.88
2022-09-01T18:25:06.879Z,1.80
2022-09-01T18:27:34.932Z,1.50
2022-09-01T18:30:01.930Z,1.75
2022-09-01T18:32:29.192Z,1.90
2022-09-01T18:34:55.946Z,1.58
2022-09-01T18:38:07.946Z,1.95
2022-09-01T18:40:37.487Z,1.77
2022-09-01T18:43:20.088Z,1.70
2022-09-01T18:45:59.212Z,1.60
2022-09-01T18:48:28.890Z,1.75
2022-09-01T18:51:12.016Z,1.70
2022-09-01T18:53:54.013Z,1.98
2022-09-01T18:56:25.842Z,2.50
2022-09-01T18:59:14.154Z,2.47
2022-09-01T19:02:09.784Z,2.03
2022-09-01T19:04:41.148Z,2.28
2022-09-01T19:07:38.609Z,1.90
2022-09-01T19:10:18.461Z,2.17
2022-09-01T19:13:09.866Z,2.85
2022-09-01T19:16:08.492Z,2.63
2022-09-01T19:18:44.592Z,2.60
2022-09-01T19:21:32.303Z,3.20
2022-09-01T19:24:03.171Z,3.13
2022-09-01T19:26:39.128Z,2.67
2022-09-01T19:29:12.523Z,2.63
2022-09-01T19:34:18.022Z,2.20
2022-09-01T19:36:53.204Z,2.45
2022-09-01T19:39:26.080Z,2.53
2022-09-01T19:42:15.532Z,2.92
2022-09-01T19:44:44.530Z,3.50
2022-09-01T19:47:18.208Z,2.97
2022-09-01T19:52:20.173Z,3.33
2022-09-01T19:54:51.980Z,2.45
2022-09-01T19:57:48.048Z,2.72
2022-09-01T20:00:19.866Z,1.92
2022-09-01T20:02:56.427Z,2.20
2022-09-01T20:05:34.544Z,1.70
2022-09-01T20:08:08.414Z,1.98
2022-09-01T20:10:56.265Z,1.55
2022-09-01T20:13:29.837Z,1.40
2022-09-01T20:16:33.561Z,1.50
2022-09-01T20:19:10.620Z,1.52
2022-09-01T20:21:41.988Z,1.85
2022-09-01T20:24:16.904Z,1.58
2022-09-01T20:26:48.494Z,1.27
2022-09-01T20:29:35.945Z,1.40
2022-09-01T20:32:04.116Z,1.55
2022-09-01T20:34:48.602Z,1.35
2022-09-01T20:37:35.598Z,1.40
2022-09-01T20:40:12.030Z,1.40
2022-09-01T20:43:00.441Z,1.10
2022-09-01T20:45:29.279Z,1.83
2022-09-01T20:47:59.270Z,1.48
2022-09-01T20:50:33.264Z,1.52
2022-09-01T20:53:24.637Z,1.52
2022-09-01T20:55:57.246Z,1.20
2022-09-01T20:58:42.917Z,1.50
2022-09-01T21:01:30.102Z,2.50
2022-09-01T21:04:15.971Z,1.48
2022-09-01T21:07:15.148Z,1.75
2022-09-01T21:09:51.325Z,1.63
2022-09-01T21:12:33.009Z,1.40
2022-09-01T21:15:21.218Z,1.67
2022-09-01T21:18:22.272Z,2.20
2022-09-01T21:21:00.431Z,1.38
2022-09-01T21:23:31.079Z,1.02
2022-09-01T21:25:59.327Z,1.10
2022-09-01T21:28:28.298Z,1.40
2022-09-01T21:30:58.136Z,1.20
2022-09-01T21:33:27.893Z,1.10
2022-09-01T21:35:55.548Z,0.90
2022-09-01T21:38:22.399Z,1.08
2022-09-01T21:40:50.630Z,1.17
2022-09-01T21:43:21.237Z,1.00
2022-09-01T21:45:48.542Z,0.73
2022-09-01T21:48:16.290Z,1.27
2022-09-01T21:50:43.278Z,0.80
2022-09-01T21:53:10.735Z,1.70
2022-09-01T21:55:37.833Z,1.50
2022-09-01T21:58:04.638Z,1.15
2022-09-01T22:00:39.382Z,1.45
2022-09-01T22:03:07.651Z,1.50
2022-09-01T22:05:35.830Z,1.10
2022-09-01T22:08:03.009Z,1.13
2022-09-01T22:10:31.605Z,1.33
2022-09-01T22:13:00.674Z,1.17
2022-09-01T22:15:27.448Z,1.20
2022-09-01T22:17:57.576Z,0.90
2022-09-01T22:20:25.435Z,0.80
2022-09-01T22:22:54.708Z,0.70
2022-09-01T22:25:24.010Z,1.00
2022-09-01T22:27:50.835Z,0.80
2022-09-01T22:30:19.222Z,0.80
2022-09-01T22:32:47.867Z,0.70
2022-09-01T22:35:16.604Z,0.40
2022-09-01T22:37:43.711Z,0.47
2022-09-01T22:40:12.814Z,0.60
2022-09-01T22:42:39.743Z,0.75
2022-09-01T22:45:08.440Z,0.70
2022-09-01T22:47:37.105Z,0.70
2022-09-01T22:50:07.236Z,0.80
2022-09-01T22:52:35.627Z,0.80
2022-09-01T22:55:03.386Z,0.70
2022-09-01T22:57:33.383Z,0.50
2022-09-01T23:00:00.914Z,0.75
2022-09-01T23:02:28.475Z,0.70
2022-09-01T23:04:55.393Z,0.50
2022-09-01T23:07:22.235Z,0.88
2022-09-01T23:09:49.239Z,0.70
2022-09-01T23:12:16.000Z,0.50
2022-09-01T23:14:42.850Z,0.47
2022-09-01T23:17:09.879Z,0.52
2022-09-01T23:19:36.998Z,0.95
2022-09-01T23:22:04.426Z,0.47
2022-09-01T23:24:31.445Z,0.68
2022-09-01T23:26:58.226Z,0.60
2022-09-01T23:29:25.408Z,1.50
2022-09-01T23:31:52.947Z,0.77
2022-09-01T23:34:19.810Z,0.70
2022-09-01T23:36:46.671Z,0.50
2022-09-01T23:39:14.201Z,0.63
2022-09-01T23:41:41.522Z,0.80
2022-09-01T23:44:10.914Z,0.60
2022-09-01T23:46:44.664Z,0.80
2022-09-01T23:51:40.635Z,0.65
2022-09-01T23:54:07.889Z,0.70
2022-09-01T23:56:35.061Z,0.63
2022-09-01T23:59:02.092Z,0.73
